• Join FlightAware (Why Join?)
  • Login
  • US Flag 
12:11PM EDT


 

Airport Tracker/Info


-or-


 

Live Flight TrackerFlight Track Log ✈ N102WY ✈ 08-May-2013 ✈ W43 - KCYS

Flight Track Log - Related Links

Times and Time Zones

All times are in EDT time to prevent confusion due to time zone crossing. See the N102WY flight status page for this flight to view local times or setup timezone preferences in your user account.

Time Position Orientation Groundspeed Altitude Reporting Facility
EDT Latitude Longitude Course Direction KTS MPH feet Rate Location/Type
12:14AM 44.4172 -104.5689 184° South 268 308 17,200  Level Denver Center
12:15AM 44.3244 -104.5775 184° South 341 392 17,800 1,620 Climbing Denver Center
12:16AM 44.2142 -104.5853 183° South 353 406 20,900 3,060 Climbing Denver Center
12:17AM 44.1006 -104.5936 183° South 363 418 24,700 3,540 Climbing Denver Center
12:18AM 43.9883 -104.6025 183° South 362 417 28,200 3,000 Climbing Denver Center
12:19AM 43.8944 -104.6097 183° South 356 410 30,900 2,220 Climbing Denver Center
12:20AM 43.7994 -104.6161 183° South 357 411 32,800 1,020 Climbing Denver Center
12:21AM 43.6856 -104.6264 184° South 364 419 33,000 60 Climbing Denver Center
12:22AM 43.5869 -104.6328 183° South 369 425 33,000  Level Denver Center
12:23AM 43.4861 -104.6411 183° South 376 433 33,000  Level Denver Center
12:24AM 43.3708 -104.6486 183° South 373 429 33,000  Level Denver Center
12:25AM 43.2719 -104.6561 183° South 372 428 33,000  Level Denver Center
12:26AM 43.1747 -104.6644 184° South 368 423 33,000  Level Denver Center
12:27AM 43.0631 -104.6725 183° South 363 418 33,000  Level Denver Center
12:28AM 42.9672 -104.6808 184° South 361 415 33,000  Level Denver Center
12:29AM 42.8736 -104.6878 183° South 358 412 33,000  Level Denver Center
12:30AM 42.7647 -104.6961 183° South 354 407 33,000  Level Denver Center
12:31AM 42.6736 -104.7039 184° South 350 403 33,000  Level Denver Center
12:32AM 42.5669 -104.7131 184° South 351 404 33,000  Level Denver Center
12:33AM 42.4747 -104.7189 183° South 352 405 33,000  Level Denver Center
12:34AM 42.3833 -104.7239 182° South 349 402 33,000 -240 Level Denver Center
12:36AM 42.2744 -104.7317 183° South 350 403 32,500 -1,260 Descending Denver Center
12:37AM 42.1589 -104.7408 183° South 367 422 30,200 -2,040 Descending Denver Center
12:38AM 42.0422 -104.7481 183° South 375 432 28,400 -1,680 Descending Denver Center
12:39AM 41.9450 -104.7547 183° South 367 422 26,900 -1,620 Descending Denver Center
12:40AM 41.8500 -104.7614 183° South 360 414 25,200 -2,400 Descending Denver Center
12:41AM 41.7356 -104.7719 184° South 365 420 22,100 -2,880 Descending Denver Center
12:42AM 41.6364 -104.7792 183° South 369 425 19,400 -2,580 Descending Denver Center
12:43AM 41.5439 -104.7853 183° South 359 413 17,000 -2,400 Descending Denver Center